createdAt,value
2022-08-28T00:01:05.529Z,100654.08
2022-08-28T00:03:34.116Z,100657.39
2022-08-28T00:06:02.800Z,100660.77
2022-08-28T00:08:32.170Z,100660.55
2022-08-28T00:11:00.730Z,100661.73
2022-08-28T00:13:29.168Z,100661.02
2022-08-28T00:16:01.180Z,100664.61
2022-08-28T00:18:31.639Z,100668.66
2022-08-28T00:21:00.936Z,100670.69
2022-08-28T00:23:42.192Z,100669.55
2022-08-28T00:26:32.635Z,100667.85
2022-08-28T00:29:01.552Z,100670.98
2022-08-28T00:31:30.023Z,100666.84
2022-08-28T00:33:58.491Z,100667.89
2022-08-28T00:36:27.382Z,100665.45
2022-08-28T00:38:56.069Z,100662.55
2022-08-28T00:41:24.984Z,100660.81
2022-08-28T00:44:06.665Z,100657.41
2022-08-28T00:46:35.066Z,100653.86
2022-08-28T00:49:03.513Z,100654.13
2022-08-28T00:51:50.945Z,100653.62
2022-08-28T00:54:19.743Z,100656.77
2022-08-28T00:56:49.990Z,100659.85
2022-08-28T00:59:20.588Z,100660.63
2022-08-28T01:01:50.101Z,100661.49
2022-08-28T01:04:21.168Z,100663.38
2022-08-28T01:06:54.590Z,100664.85
2022-08-28T01:09:25.918Z,100667.88
2022-08-28T01:11:57.908Z,100671.00
2022-08-28T01:14:27.038Z,100673.59
2022-08-28T01:16:56.442Z,100675.67
2022-08-28T01:19:37.543Z,100678.78
2022-08-28T01:22:23.763Z,100681.07
2022-08-28T01:24:54.114Z,100682.99
2022-08-28T01:27:24.010Z,100685.09
2022-08-28T01:29:53.780Z,100688.00
2022-08-28T01:32:32.547Z,100687.98
2022-08-28T01:35:01.493Z,100687.10
2022-08-28T01:37:30.413Z,100688.90
2022-08-28T01:39:58.781Z,100686.33
2022-08-28T01:42:27.341Z,100686.88
2022-08-28T01:44:55.855Z,100683.33
2022-08-28T01:47:24.306Z,100680.80
2022-08-28T01:49:52.682Z,100680.73
2022-08-28T01:52:26.356Z,100679.08
2022-08-28T01:54:55.277Z,100678.48
2022-08-28T01:57:26.672Z,100679.14
2022-08-28T01:59:55.212Z,100678.24
2022-08-28T02:02:23.796Z,100679.41
2022-08-28T02:04:54.147Z,100680.81
2022-08-28T02:07:22.399Z,100684.48
2022-08-28T02:09:50.893Z,100681.95
2022-08-28T02:12:19.305Z,100681.52
2022-08-28T02:14:47.745Z,100679.07
2022-08-28T02:17:16.439Z,100676.27
2022-08-28T02:19:44.914Z,100678.91
2022-08-28T02:22:14.114Z,100677.42
2022-08-28T02:24:42.594Z,100676.67
2022-08-28T02:27:11.820Z,100674.58
2022-08-28T02:29:40.172Z,100676.55
2022-08-28T02:32:08.754Z,100672.92
2022-08-28T02:34:37.773Z,100675.89
2022-08-28T02:37:09.205Z,100672.45
2022-08-28T02:39:37.986Z,100674.25
2022-08-28T02:42:07.191Z,100677.20
2022-08-28T02:44:35.886Z,100678.30
2022-08-28T02:47:04.967Z,100676.52
2022-08-28T02:49:36.483Z,100674.21
2022-08-28T02:52:07.153Z,100674.46
2022-08-28T02:54:36.419Z,100678.25
2022-08-28T02:57:05.142Z,100681.36
2022-08-28T02:59:33.521Z,100683.95
2022-08-28T03:02:04.461Z,100684.67
2022-08-28T03:04:33.788Z,100685.17
2022-08-28T03:07:02.246Z,100684.09
2022-08-28T03:09:30.724Z,100688.77
2022-08-28T03:11:59.027Z,100689.60
2022-08-28T03:14:28.203Z,100686.83
2022-08-28T03:16:56.602Z,100686.75
2022-08-28T03:19:25.267Z,100691.44
2022-08-28T03:21:56.002Z,100690.50
2022-08-28T03:24:24.384Z,100693.78
2022-08-28T03:26:52.660Z,100694.14
2022-08-28T03:29:21.241Z,100696.64
2022-08-28T03:31:49.622Z,100696.34
2022-08-28T03:34:18.207Z,100697.71
2022-08-28T03:36:46.480Z,100698.64
2022-08-28T03:39:14.862Z,100700.31
2022-08-28T03:41:43.343Z,100701.38
2022-08-28T03:44:12.061Z,100702.52
2022-08-28T03:46:40.512Z,100704.67
2022-08-28T03:49:08.893Z,100708.11
2022-08-28T03:51:37.304Z,100710.38
2022-08-28T03:54:05.956Z,100711.83
2022-08-28T03:56:34.337Z,100709.70
2022-08-28T03:59:05.632Z,100712.16
2022-08-28T04:01:34.628Z,100712.70
2022-08-28T04:04:03.470Z,100716.68
2022-08-28T04:06:32.022Z,100716.20
2022-08-28T04:09:00.567Z,100710.84
2022-08-28T04:11:29.432Z,100717.73
2022-08-28T04:13:58.287Z,100715.90
2022-08-28T04:16:27.581Z,100719.24
2022-08-28T04:18:55.899Z,100717.27
2022-08-28T04:21:26.387Z,100717.38
2022-08-28T04:23:55.450Z,100718.13
2022-08-28T04:26:26.365Z,100719.98
2022-08-28T04:28:56.099Z,100720.75
2022-08-28T04:31:32.066Z,100718.90
2022-08-28T04:34:02.666Z,100719.64
2022-08-28T04:36:31.376Z,100718.73
2022-08-28T04:38:59.907Z,100721.00
2022-08-28T04:41:29.208Z,100723.02
2022-08-28T04:43:58.263Z,100721.71
2022-08-28T04:46:26.910Z,100718.56
2022-08-28T04:49:00.418Z,100723.25
2022-08-28T04:51:29.403Z,100723.48
2022-08-28T04:53:58.529Z,100723.69
2022-08-28T04:56:27.292Z,100723.05
2022-08-28T04:58:55.771Z,100723.29
2022-08-28T05:01:25.021Z,100723.20
2022-08-28T05:03:58.083Z,100724.73
2022-08-28T05:06:28.167Z,100728.10
2022-08-28T05:09:02.315Z,100727.42
2022-08-28T05:11:33.530Z,100725.12
2022-08-28T05:14:13.929Z,100723.34
2022-08-28T05:16:50.208Z,100728.00
2022-08-28T05:19:19.484Z,100729.03
2022-08-28T05:21:48.523Z,100727.56
2022-08-28T05:24:17.247Z,100728.41
2022-08-28T05:26:48.143Z,100732.69
2022-08-28T05:29:18.314Z,100734.00
2022-08-28T05:31:47.993Z,100738.67
2022-08-28T05:34:17.321Z,100740.43
2022-08-28T05:36:45.903Z,100743.19
2022-08-28T05:39:14.695Z,100746.66
2022-08-28T05:41:44.574Z,100745.58
2022-08-28T05:44:15.720Z,100747.86
2022-08-28T05:46:48.075Z,100744.58
2022-08-28T05:49:18.756Z,100750.89
2022-08-28T05:51:48.060Z,100749.88
2022-08-28T05:54:17.370Z,100750.29
2022-08-28T05:56:46.702Z,100752.18
2022-08-28T05:59:16.347Z,100754.67
2022-08-28T06:01:47.513Z,100756.38
2022-08-28T06:04:24.659Z,100755.72
2022-08-28T06:06:53.291Z,100758.72
2022-08-28T06:09:29.792Z,100762.86
2022-08-28T06:12:02.305Z,100764.69
2022-08-28T06:14:32.861Z,100763.92
2022-08-28T06:17:03.367Z,100765.65
2022-08-28T06:19:33.314Z,100764.04
2022-08-28T06:22:07.148Z,100763.16
2022-08-28T06:24:36.980Z,100763.54
2022-08-28T06:27:05.613Z,100763.41
2022-08-28T06:29:34.002Z,100766.08
2022-08-28T06:32:05.116Z,100768.90
2022-08-28T06:34:33.617Z,100771.41
2022-08-28T06:37:01.998Z,100774.42
2022-08-28T06:39:30.609Z,100776.23
2022-08-28T06:41:59.064Z,100777.83
2022-08-28T06:44:27.649Z,100777.00
2022-08-28T06:46:56.131Z,100779.48
2022-08-28T06:49:24.407Z,100776.69
2022-08-28T06:51:52.787Z,100776.95
2022-08-28T06:54:23.277Z,100775.32
2022-08-28T06:56:52.959Z,100779.20
2022-08-28T06:59:21.818Z,100777.75
2022-08-28T07:01:50.509Z,100781.84
2022-08-28T07:04:19.104Z,100779.42
2022-08-28T07:06:54.151Z,100775.30
2022-08-28T07:09:24.644Z,100776.64
2022-08-28T07:11:53.543Z,100776.23
2022-08-28T07:14:22.129Z,100773.14
2022-08-28T07:16:51.895Z,100771.41
2022-08-28T07:19:20.687Z,100770.84
2022-08-28T07:21:49.516Z,100769.67
2022-08-28T07:24:19.035Z,100770.70
2022-08-28T07:26:48.466Z,100771.10
2022-08-28T07:29:17.735Z,100770.88
2022-08-28T07:31:49.897Z,100774.16
2022-08-28T07:34:21.014Z,100774.17
2022-08-28T07:36:52.470Z,100771.95
2022-08-28T07:39:20.919Z,100772.69
2022-08-28T07:41:49.456Z,100775.15
2022-08-28T07:44:36.577Z,100770.91
2022-08-28T07:47:06.710Z,100766.12
2022-08-28T07:49:38.187Z,100764.30
2022-08-28T07:52:08.268Z,100763.48
2022-08-28T07:54:37.466Z,100760.45
2022-08-28T07:57:07.271Z,100763.17
2022-08-28T07:59:37.276Z,100760.95
2022-08-28T08:02:06.906Z,100762.64
2022-08-28T08:04:35.617Z,100766.88
2022-08-28T08:07:05.414Z,100767.19
2022-08-28T08:09:40.701Z,100765.83
2022-08-28T08:12:10.517Z,100765.55
2022-08-28T08:14:40.478Z,100765.86
2022-08-28T08:17:09.984Z,100760.45
2022-08-28T08:19:38.598Z,100755.52
2022-08-28T08:22:07.148Z,100753.19
2022-08-28T08:24:35.734Z,100749.89
2022-08-28T08:27:04.628Z,100750.08
2022-08-28T08:29:36.097Z,100748.77
2022-08-28T08:32:08.175Z,100749.87
2022-08-28T08:34:40.022Z,100752.06
2022-08-28T08:37:09.305Z,100752.56
2022-08-28T08:39:38.095Z,100753.55
2022-08-28T08:42:19.273Z,100754.23
2022-08-28T08:44:48.946Z,100755.58
2022-08-28T08:47:49.121Z,100755.41
2022-08-28T08:50:32.581Z,100757.30
2022-08-28T08:53:19.357Z,100758.77
2022-08-28T08:55:51.425Z,100760.37
2022-08-28T08:58:33.824Z,100759.92
2022-08-28T09:01:24.140Z,100757.77
2022-08-28T09:04:16.052Z,100762.86
2022-08-28T09:07:00.448Z,100764.84
2022-08-28T09:09:37.145Z,100763.30
2022-08-28T09:12:09.315Z,100761.52
2022-08-28T09:14:45.613Z,100760.99
2022-08-28T09:17:20.554Z,100762.92
2022-08-28T09:19:50.051Z,100759.89
2022-08-28T09:22:19.047Z,100762.77
2022-08-28T09:24:47.766Z,100765.26
2022-08-28T09:27:33.114Z,100762.64
2022-08-28T09:30:08.999Z,100765.45
2022-08-28T09:32:44.558Z,100763.11
2022-08-28T09:35:19.447Z,100763.90
2022-08-28T09:37:47.866Z,100761.52
2022-08-28T09:40:22.326Z,100764.98
2022-08-28T09:43:29.034Z,100759.11
2022-08-28T09:46:04.565Z,100760.21
2022-08-28T09:48:44.772Z,100758.41
2022-08-28T09:51:14.805Z,100757.80
2022-08-28T09:53:52.593Z,100755.17
2022-08-28T09:56:37.063Z,100754.30
2022-08-28T09:59:22.793Z,100750.23
2022-08-28T10:02:17.486Z,100747.86
2022-08-28T10:04:55.299Z,100747.54
2022-08-28T10:07:54.905Z,100743.72
2022-08-28T10:10:42.644Z,100742.54
2022-08-28T10:13:26.316Z,100738.96
2022-08-28T10:16:35.620Z,100738.23
2022-08-28T10:19:20.785Z,100739.19
2022-08-28T10:22:07.846Z,100733.94
2022-08-28T10:24:55.020Z,100736.42
2022-08-28T10:27:53.505Z,100735.39
2022-08-28T10:30:24.244Z,100730.21
2022-08-28T10:33:21.188Z,100726.45
2022-08-28T10:35:59.504Z,100724.91
2022-08-28T10:39:03.547Z,100725.77
2022-08-28T10:41:52.686Z,100720.43
2022-08-28T10:44:35.502Z,100716.02
2022-08-28T10:47:06.544Z,100715.41
2022-08-28T10:49:35.886Z,100714.87
2022-08-28T10:52:08.947Z,100713.96
2022-08-28T10:54:40.386Z,100722.23
2022-08-28T10:57:09.314Z,100718.56
2022-08-28T10:59:42.156Z,100713.19
2022-08-28T11:02:12.985Z,100707.53
2022-08-28T11:04:41.584Z,100704.71
2022-08-28T11:07:12.523Z,100705.19
2022-08-28T11:09:46.369Z,100704.52
2022-08-28T11:12:17.892Z,100703.04
2022-08-28T11:14:53.950Z,100696.67
2022-08-28T11:17:23.243Z,100694.98
2022-08-28T11:20:25.155Z,100691.65
2022-08-28T11:23:00.064Z,100690.98
2022-08-28T11:25:50.232Z,100686.65
2022-08-28T11:28:24.673Z,100687.36
2022-08-28T11:30:59.246Z,100689.05
2022-08-28T11:33:44.393Z,100690.19
2022-08-28T11:36:33.208Z,100688.45
2022-08-28T11:39:02.924Z,100687.17
2022-08-28T11:41:36.811Z,100686.77
2022-08-28T11:44:13.958Z,100681.23
2022-08-28T11:46:43.428Z,100683.25
2022-08-28T11:49:24.892Z,100680.48
2022-08-28T11:52:20.318Z,100677.64
2022-08-28T11:54:54.743Z,100673.15
2022-08-28T11:57:26.702Z,100672.65
2022-08-28T12:00:02.867Z,100672.20
2022-08-28T12:02:40.484Z,100671.64
2022-08-28T12:05:13.392Z,100669.56
2022-08-28T12:07:44.770Z,100666.39
2022-08-28T12:10:33.351Z,100666.73
2022-08-28T12:13:04.355Z,100659.50
2022-08-28T12:15:33.748Z,100660.13
2022-08-28T12:18:10.979Z,100658.02
2022-08-28T12:20:55.157Z,100653.08
2022-08-28T12:23:35.292Z,100658.49
2022-08-28T12:26:06.490Z,100659.92
2022-08-28T12:28:40.566Z,100654.73
2022-08-28T12:31:09.177Z,100655.62
2022-08-28T12:33:51.944Z,100653.09
2022-08-28T12:36:26.991Z,100654.35
2022-08-28T12:38:58.845Z,100654.54
2022-08-28T12:41:27.656Z,100657.42
2022-08-28T12:43:57.869Z,100653.11
2022-08-28T12:46:29.161Z,100651.54
2022-08-28T12:49:02.668Z,100652.85
2022-08-28T12:51:34.104Z,100649.23
2022-08-28T12:54:05.269Z,100652.83
2022-08-28T12:56:36.398Z,100652.02
2022-08-28T12:59:34.106Z,100648.15
2022-08-28T13:02:09.896Z,100650.55
2022-08-28T13:04:41.186Z,100645.27
2022-08-28T13:07:16.143Z,100643.19
2022-08-28T13:09:49.850Z,100640.14
2022-08-28T13:12:27.011Z,100637.00
2022-08-28T13:15:14.563Z,100633.95
2022-08-28T13:17:53.722Z,100633.09
2022-08-28T13:20:29.234Z,100635.66
2022-08-28T13:22:59.092Z,100636.36
2022-08-28T13:25:36.995Z,100635.30
2022-08-28T13:28:18.045Z,100635.91
2022-08-28T13:30:58.343Z,100637.33
2022-08-28T13:33:27.555Z,100636.83
2022-08-28T13:35:55.969Z,100634.05
2022-08-28T13:38:25.597Z,100632.90
2022-08-28T13:41:03.716Z,100630.33
2022-08-28T13:43:44.717Z,100630.79
2022-08-28T13:46:13.606Z,100630.25
2022-08-28T13:48:42.268Z,100624.98
2022-08-28T13:51:20.136Z,100625.41
2022-08-28T13:53:50.890Z,100632.01
2022-08-28T13:56:21.905Z,100633.84
2022-08-28T13:58:57.639Z,100633.48
2022-08-28T14:01:46.888Z,100634.67
2022-08-28T14:04:16.141Z,100636.84
2022-08-28T14:06:44.724Z,100635.02
2022-08-28T14:09:17.538Z,100634.54
2022-08-28T14:11:47.283Z,100634.63
2022-08-28T14:14:16.330Z,100635.70
2022-08-28T14:16:46.054Z,100636.68
2022-08-28T14:19:14.864Z,100631.64
2022-08-28T14:21:43.098Z,100628.60
2022-08-28T14:24:12.034Z,100628.82
2022-08-28T14:26:40.871Z,100628.84
2022-08-28T14:29:11.489Z,100628.05
2022-08-28T14:31:41.459Z,100625.97
2022-08-28T14:34:11.966Z,100624.05
2022-08-28T14:36:41.150Z,100621.38
2022-08-28T14:39:11.576Z,100623.40
2022-08-28T14:41:47.021Z,100625.97
2022-08-28T14:44:16.530Z,100628.84
2022-08-28T14:46:46.503Z,100626.48
2022-08-28T14:49:17.299Z,100628.88
2022-08-28T14:51:46.783Z,100631.35
2022-08-28T14:54:18.563Z,100631.52
2022-08-28T14:56:48.115Z,100629.11
2022-08-28T14:59:23.964Z,100631.49
2022-08-28T16:16:29.102Z,100635.29
2022-08-28T16:18:58.706Z,100632.90
2022-08-28T16:21:27.559Z,100635.23
2022-08-28T16:23:56.799Z,100635.66
2022-08-28T16:26:25.752Z,100638.19
2022-08-28T16:28:54.338Z,100639.07
2022-08-28T16:31:23.159Z,100639.99
2022-08-28T16:33:51.811Z,100639.48
2022-08-28T16:36:21.699Z,100636.55
2022-08-28T16:39:03.462Z,100636.61
2022-08-28T16:41:32.729Z,100635.67
2022-08-28T16:44:01.679Z,100637.42
2022-08-28T16:46:30.151Z,100637.86
2022-08-28T16:49:00.042Z,100640.06
2022-08-28T16:51:29.884Z,100640.23
2022-08-28T16:53:58.919Z,100642.77
2022-08-28T16:56:27.300Z,100645.58
2022-08-28T16:58:57.331Z,100646.43
2022-08-28T17:01:26.680Z,100646.89
2022-08-28T17:03:55.876Z,100648.67
2022-08-28T17:06:30.142Z,100650.94
2022-08-28T17:08:59.229Z,100652.67
2022-08-28T17:11:28.939Z,100654.51
2022-08-28T17:13:57.741Z,100654.95
2022-08-28T17:16:27.612Z,100658.16
2022-08-28T17:18:56.230Z,100661.30
2022-08-28T17:21:42.937Z,100665.48
2022-08-28T17:24:12.994Z,100665.55
2022-08-28T17:26:42.838Z,100671.01
2022-08-28T17:29:11.563Z,100673.80
2022-08-28T17:31:40.429Z,100676.48
2022-08-28T17:34:09.134Z,100679.55
2022-08-28T17:36:39.201Z,100678.97
2022-08-28T17:39:14.706Z,100683.05
2022-08-28T17:41:43.801Z,100683.79
2022-08-28T17:44:12.726Z,100687.09
2022-08-28T17:46:41.087Z,100690.20
2022-08-28T17:49:10.338Z,100692.48
2022-08-28T17:51:43.285Z,100696.14
2022-08-28T17:54:14.295Z,100703.98
2022-08-28T17:56:43.260Z,100703.65
2022-08-28T17:59:12.865Z,100707.39
2022-08-28T18:01:42.372Z,100709.61
2022-08-28T18:04:11.818Z,100710.23
2022-08-28T18:06:40.184Z,100714.31
2022-08-28T18:09:09.791Z,100715.60
2022-08-28T18:11:38.378Z,100718.63
2022-08-28T18:14:07.474Z,100719.09
2022-08-28T18:16:37.222Z,100721.21
2022-08-28T18:19:08.400Z,100720.92
2022-08-28T18:21:38.350Z,100721.88
2022-08-28T18:24:07.205Z,100728.20
2022-08-28T18:26:35.721Z,100730.48
2022-08-28T18:29:04.303Z,100732.17
2022-08-28T18:31:34.441Z,100734.55
2022-08-28T18:34:03.933Z,100735.40
2022-08-28T18:36:43.580Z,100737.50
2022-08-28T18:39:12.057Z,100740.11
2022-08-28T18:41:41.676Z,100742.63
2022-08-28T18:44:15.777Z,100744.72
2022-08-28T18:46:45.139Z,100748.86
2022-08-28T18:49:13.865Z,100751.02
2022-08-28T18:51:44.096Z,100754.74
2022-08-28T18:54:18.234Z,100757.37
2022-08-28T18:56:50.355Z,100759.61
2022-08-28T18:59:19.457Z,100761.41
2022-08-28T19:01:48.165Z,100761.23
2022-08-28T19:04:16.844Z,100765.17
2022-08-28T19:06:45.255Z,100764.18
2022-08-28T19:09:20.433Z,100769.09
2022-08-28T19:11:50.324Z,100770.13
2022-08-28T19:14:18.756Z,100773.13
2022-08-28T19:16:47.357Z,100774.27
2022-08-28T19:19:15.725Z,100774.41
2022-08-28T19:21:44.817Z,100774.70
2022-08-28T19:24:16.675Z,100774.20
2022-08-28T19:26:46.713Z,100776.81
2022-08-28T19:29:16.614Z,100781.39
2022-08-28T19:31:45.091Z,100782.61
2022-08-28T19:34:13.487Z,100785.56
2022-08-28T19:36:42.160Z,100790.22
2022-08-28T19:39:10.434Z,100794.96
2022-08-28T19:41:39.349Z,100802.69
2022-08-28T19:44:08.523Z,100807.57
2022-08-28T19:46:38.479Z,100811.86
2022-08-28T19:49:07.924Z,100811.98
2022-08-28T19:51:38.514Z,100811.45
2022-08-28T19:54:11.667Z,100814.88
2022-08-28T19:56:41.685Z,100817.15
2022-08-28T19:59:10.986Z,100821.17
2022-08-28T20:01:43.827Z,100818.52
2022-08-28T20:04:18.002Z,100817.42
2022-08-28T20:06:46.609Z,100816.45
2022-08-28T20:09:17.718Z,100816.29
2022-08-28T20:11:47.282Z,100819.48
2022-08-28T20:14:17.846Z,100820.24
2022-08-28T20:16:48.812Z,100822.92
2022-08-28T20:19:19.229Z,100820.40
2022-08-28T20:21:51.795Z,100817.81
2022-08-28T20:24:25.180Z,100818.20
2022-08-28T20:26:53.968Z,100816.58
2022-08-28T20:29:24.717Z,100817.55
2022-08-28T20:31:53.247Z,100815.16
2022-08-28T20:34:22.295Z,100817.02
2022-08-28T20:36:50.690Z,100815.95
2022-08-28T20:39:20.364Z,100811.80
2022-08-28T20:41:49.652Z,100813.46
2022-08-28T20:44:20.215Z,100813.34
2022-08-28T20:46:51.575Z,100812.16
2022-08-28T20:49:24.361Z,100809.80
2022-08-28T20:51:53.432Z,100809.30
2022-08-28T20:54:25.616Z,100809.88
2022-08-28T20:56:54.813Z,100812.13
2022-08-28T20:59:23.462Z,100816.06
2022-08-28T21:01:52.194Z,100817.94
2022-08-28T21:04:20.563Z,100819.06
2022-08-28T21:06:49.158Z,100820.78
2022-08-28T21:09:18.598Z,100822.02
2022-08-28T21:11:46.929Z,100818.67
2022-08-28T21:14:16.218Z,100821.36
2022-08-28T21:16:45.001Z,100824.07
2022-08-28T21:19:16.377Z,100829.46
2022-08-28T21:21:45.827Z,100827.20
2022-08-28T21:24:16.327Z,100826.92
2022-08-28T21:26:47.074Z,100822.77
2022-08-28T21:29:16.131Z,100817.23
2022-08-28T21:31:45.436Z,100817.52
2022-08-28T21:34:14.633Z,100818.58
2022-08-28T21:36:50.324Z,100820.70
2022-08-28T21:39:23.472Z,100822.56
2022-08-28T21:41:52.263Z,100821.09
2022-08-28T21:44:20.681Z,100823.94
2022-08-28T21:46:49.024Z,100823.65
2022-08-28T21:49:17.510Z,100824.91
2022-08-28T21:51:45.822Z,100828.00
2022-08-28T21:54:14.673Z,100830.54
2022-08-28T21:56:43.361Z,100834.56
2022-08-28T21:59:11.775Z,100833.48
2022-08-28T22:01:40.468Z,100834.36
2022-08-28T22:04:08.811Z,100832.85
2022-08-28T22:06:37.490Z,100832.33
2022-08-28T22:09:06.659Z,100833.27
2022-08-28T22:11:35.886Z,100835.71
2022-08-28T22:14:04.295Z,100835.12
2022-08-28T22:16:32.913Z,100834.84
2022-08-28T22:19:01.334Z,100836.44
2022-08-28T22:21:48.155Z,100835.38
2022-08-28T22:24:16.875Z,100838.23
2022-08-28T22:26:45.008Z,100841.23
2022-08-28T22:29:13.560Z,100838.50
2022-08-28T22:31:45.752Z,100843.97
2022-08-28T22:34:15.413Z,100841.42
2022-08-28T22:36:43.749Z,100843.67
2022-08-28T22:39:12.027Z,100840.02
2022-08-28T22:41:40.860Z,100840.95
2022-08-28T22:44:10.454Z,100840.13
2022-08-28T22:46:38.703Z,100839.30
2022-08-28T22:49:06.914Z,100841.49
2022-08-28T22:51:35.763Z,100842.15
2022-08-28T22:54:04.728Z,100843.64
2022-08-28T22:56:33.238Z,100845.71
2022-08-28T22:59:01.616Z,100845.42
2022-08-28T23:01:30.103Z,100841.52
2022-08-28T23:03:58.764Z,100841.04
2022-08-28T23:06:27.471Z,100843.15
2022-08-28T23:08:55.858Z,100841.74
2022-08-28T23:11:24.473Z,100843.03
2022-08-28T23:13:52.918Z,100842.02
2022-08-28T23:16:24.344Z,100839.94
2022-08-28T23:19:08.583Z,100840.50
2022-08-28T23:21:43.604Z,100844.23
2022-08-28T23:24:16.658Z,100845.17
2022-08-28T23:26:46.292Z,100850.55
2022-08-28T23:29:14.841Z,100850.97
2022-08-28T23:31:43.509Z,100849.42
2022-08-28T23:34:12.004Z,100850.16
2022-08-28T23:36:42.995Z,100850.89
2022-08-28T23:39:12.166Z,100852.70
2022-08-28T23:41:40.870Z,100853.13
2022-08-28T23:44:10.027Z,100850.49
2022-08-28T23:46:41.076Z,100851.23
2022-08-28T23:49:11.131Z,100850.41
2022-08-28T23:51:40.631Z,100849.82
2022-08-28T23:54:10.509Z,100851.98
2022-08-28T23:56:39.401Z,100849.45
2022-08-28T23:59:08.259Z,100849.50
